createdAt,value
2023-03-19T00:00:14.022Z,15.93
2023-03-19T00:03:08.873Z,17.17
2023-03-19T00:05:41.511Z,17.17
2023-03-19T00:10:53.604Z,18.00
2023-03-19T00:13:28.002Z,16.45
2023-03-19T00:16:20.215Z,17.58
2023-03-19T00:19:00.625Z,16.98
2023-03-19T00:21:36.048Z,17.00
2023-03-19T00:24:07.389Z,16.80
2023-03-19T00:26:43.791Z,17.38
2023-03-19T00:29:11.647Z,16.73
2023-03-19T00:31:42.591Z,15.73
2023-03-19T00:34:14.763Z,16.70
2023-03-19T00:36:48.344Z,17.25
2023-03-19T00:39:18.609Z,16.30
2023-03-19T00:41:50.829Z,16.52
2023-03-19T00:44:22.042Z,16.38
2023-03-19T00:46:50.118Z,14.93
2023-03-19T00:49:25.235Z,14.55
2023-03-19T00:51:52.518Z,14.80
2023-03-19T00:54:22.255Z,15.57
2023-03-19T00:56:54.481Z,15.45
2023-03-19T00:59:22.328Z,15.63
2023-03-19T01:01:52.641Z,17.00
2023-03-19T01:04:23.412Z,16.00
2023-03-19T01:06:54.270Z,16.63
2023-03-19T01:09:22.223Z,15.83
2023-03-19T01:11:52.684Z,15.18
2023-03-19T01:14:27.989Z,15.57
2023-03-19T01:17:16.119Z,14.98
2023-03-19T01:22:57.772Z,15.20
2023-03-19T01:25:35.537Z,14.80
2023-03-19T01:28:11.341Z,14.57
2023-03-19T01:30:51.009Z,14.05
2023-03-19T01:33:21.585Z,14.30
2023-03-19T01:36:00.480Z,14.43
2023-03-19T01:41:25.323Z,14.60
2023-03-19T01:44:01.956Z,14.45
2023-03-19T01:46:34.128Z,12.52
2023-03-19T01:49:06.400Z,13.25
2023-03-19T01:51:53.848Z,12.40
2023-03-19T01:54:28.908Z,12.95
2023-03-19T01:57:16.260Z,12.98
2023-03-19T01:59:54.362Z,13.80
2023-03-19T02:02:30.478Z,12.73
2023-03-19T02:05:18.666Z,13.20
2023-03-19T02:08:00.721Z,13.35
2023-03-19T02:13:02.617Z,11.43
2023-03-19T02:15:34.852Z,12.80
2023-03-19T02:18:02.778Z,13.27
2023-03-19T02:20:45.070Z,12.82
2023-03-19T02:23:24.118Z,13.05
2023-03-19T02:26:06.697Z,12.63
2023-03-19T02:28:42.716Z,13.00
2023-03-19T02:31:14.889Z,14.00
2023-03-19T02:33:44.638Z,12.30
2023-03-19T02:36:19.446Z,13.30
2023-03-19T02:38:49.568Z,12.98
2023-03-19T02:41:19.629Z,13.35
2023-03-19T02:43:46.935Z,13.38
2023-03-19T02:46:23.275Z,12.65
2023-03-19T02:48:55.646Z,13.07
2023-03-19T02:51:23.533Z,13.15
2023-03-19T02:54:06.186Z,13.88
2023-03-19T02:56:40.717Z,13.27
2023-03-19T02:59:09.831Z,13.38
2023-03-19T03:01:39.159Z,12.85
2023-03-19T03:04:13.101Z,12.73
2023-03-19T03:06:54.354Z,13.43
2023-03-19T03:09:24.982Z,12.50
2023-03-19T03:11:54.551Z,13.23
2023-03-19T03:14:31.936Z,12.88
2023-03-19T03:17:09.124Z,13.60
2023-03-19T03:19:37.441Z,13.55
2023-03-19T03:22:15.829Z,14.25
2023-03-19T03:24:47.995Z,13.88
2023-03-19T03:27:21.141Z,13.68
2023-03-19T03:29:56.367Z,13.68
2023-03-19T03:32:28.428Z,13.23
2023-03-19T03:35:02.753Z,13.30
2023-03-19T03:37:33.365Z,13.48
2023-03-19T03:40:05.889Z,13.65
2023-03-19T03:42:38.368Z,13.85
2023-03-19T03:45:11.062Z,13.13
2023-03-19T03:47:39.890Z,13.63
2023-03-19T03:50:18.012Z,13.43
2023-03-19T03:52:48.531Z,13.30
2023-03-19T03:55:25.242Z,14.38
2023-03-19T03:57:59.148Z,14.07
2023-03-19T04:00:29.843Z,14.65
2023-03-19T04:02:59.900Z,14.43
2023-03-19T04:05:28.139Z,13.50
2023-03-19T04:08:06.374Z,14.00
2023-03-19T04:10:37.537Z,14.15
2023-03-19T04:13:11.370Z,14.32
2023-03-19T04:15:51.103Z,13.70
2023-03-19T04:18:23.419Z,14.93
2023-03-19T04:20:54.200Z,14.20
2023-03-19T04:23:24.745Z,14.27
2023-03-19T04:25:56.285Z,14.38
2023-03-19T04:28:26.460Z,14.50
2023-03-19T04:31:05.137Z,13.95
2023-03-19T04:33:36.395Z,12.90
2023-03-19T04:36:04.495Z,14.00
2023-03-19T04:38:34.684Z,13.25
2023-03-19T04:41:02.544Z,13.68
2023-03-19T04:43:32.338Z,13.13
2023-03-19T04:46:01.887Z,13.77
2023-03-19T04:48:33.845Z,12.35
2023-03-19T04:51:02.709Z,11.43
2023-03-19T04:53:30.346Z,10.98
2023-03-19T04:55:59.861Z,10.40
2023-03-19T04:58:29.482Z,10.60
2023-03-19T05:00:59.113Z,10.13
2023-03-19T05:03:27.310Z,10.60
2023-03-19T05:05:55.306Z,12.05
2023-03-19T05:08:22.796Z,11.95
2023-03-19T05:10:50.187Z,11.38
2023-03-19T05:13:18.798Z,11.30
2023-03-19T05:15:47.793Z,12.38
2023-03-19T05:18:15.420Z,11.50
2023-03-19T05:20:45.524Z,12.25
2023-03-19T05:23:13.562Z,11.60
2023-03-19T05:25:40.868Z,12.43
2023-03-19T05:28:08.344Z,13.32
2023-03-19T05:30:36.260Z,13.20
2023-03-19T05:33:03.955Z,12.80
2023-03-19T05:35:31.416Z,12.85
2023-03-19T05:37:58.988Z,13.13
2023-03-19T05:40:28.843Z,13.07
2023-03-19T05:43:01.218Z,13.88
2023-03-19T05:45:28.587Z,13.38
2023-03-19T05:47:55.951Z,12.90
2023-03-19T05:50:23.367Z,13.63
2023-03-19T05:52:50.813Z,13.50
2023-03-19T05:55:18.175Z,14.15
2023-03-19T05:57:45.534Z,13.35
2023-03-19T06:00:14.896Z,12.80
2023-03-19T06:02:43.193Z,12.02
2023-03-19T06:05:12.157Z,12.48
2023-03-19T06:07:39.482Z,12.98
2023-03-19T06:10:07.762Z,12.30
2023-03-19T06:12:35.216Z,12.18
2023-03-19T06:15:05.363Z,11.95
2023-03-19T06:17:32.792Z,12.18
2023-03-19T06:20:00.054Z,12.23
2023-03-19T06:22:27.549Z,12.38
2023-03-19T06:24:54.806Z,11.65
2023-03-19T06:27:22.070Z,12.52
2023-03-19T06:29:49.402Z,12.63
2023-03-19T06:32:16.687Z,12.80
2023-03-19T06:34:43.948Z,12.70
2023-03-19T06:37:11.878Z,12.60
2023-03-19T06:39:39.496Z,13.15
2023-03-19T06:42:07.436Z,12.98
2023-03-19T06:44:34.858Z,13.65
2023-03-19T06:47:02.160Z,12.85
2023-03-19T06:49:29.608Z,12.82
2023-03-19T06:51:59.580Z,12.88
2023-03-19T06:54:29.411Z,13.00
2023-03-19T06:56:56.655Z,12.80
2023-03-19T06:59:23.935Z,13.52
2023-03-19T07:01:51.535Z,12.27
2023-03-19T07:04:19.115Z,12.00
2023-03-19T07:06:46.529Z,12.85
2023-03-19T07:09:14.993Z,12.40
2023-03-19T07:11:44.387Z,13.32
2023-03-19T07:14:11.865Z,14.27
2023-03-19T07:16:44.335Z,12.98
2023-03-19T07:19:11.684Z,13.18
2023-03-19T07:21:39.014Z,12.40
2023-03-19T07:24:06.577Z,12.65
2023-03-19T07:26:33.928Z,13.88
2023-03-19T07:29:01.923Z,12.23
2023-03-19T07:31:31.423Z,12.30
2023-03-19T07:33:58.751Z,12.27
2023-03-19T07:36:28.627Z,12.98
2023-03-19T07:38:58.280Z,12.70
2023-03-19T07:41:29.924Z,12.55
2023-03-19T07:43:57.272Z,13.18
2023-03-19T07:46:24.827Z,12.73
2023-03-19T07:48:52.640Z,13.25
2023-03-19T07:51:22.769Z,13.10
2023-03-19T07:53:54.587Z,12.45
2023-03-19T07:58:49.205Z,12.75
2023-03-19T08:01:19.152Z,12.07
2023-03-19T08:03:49.040Z,11.88
2023-03-19T08:06:16.323Z,12.63
2023-03-19T08:08:43.615Z,12.73
2023-03-19T08:11:10.993Z,12.65
2023-03-19T08:13:38.348Z,13.18
2023-03-19T08:16:06.036Z,12.70
2023-03-19T08:18:36.165Z,13.65
2023-03-19T08:21:06.083Z,13.05
2023-03-19T08:23:33.394Z,12.70
2023-03-19T08:26:00.711Z,12.82
2023-03-19T08:28:30.422Z,12.40
2023-03-19T08:30:57.760Z,12.27
2023-03-19T08:33:25.201Z,12.23
2023-03-19T08:35:52.608Z,12.40
2023-03-19T08:38:20.105Z,13.10
2023-03-19T08:40:47.803Z,12.35
2023-03-19T08:43:15.072Z,12.05
2023-03-19T08:45:42.519Z,12.43
2023-03-19T08:48:09.862Z,12.57
2023-03-19T08:50:41.882Z,12.40
2023-03-19T08:53:09.485Z,11.55
2023-03-19T08:55:36.798Z,12.20
2023-03-19T08:58:06.626Z,12.05
2023-03-19T09:00:36.313Z,12.07
2023-03-19T09:03:06.934Z,12.38
2023-03-19T09:05:35.470Z,12.23
2023-03-19T09:08:02.991Z,11.60
2023-03-19T09:10:30.321Z,12.05
2023-03-19T09:12:57.652Z,13.18
2023-03-19T09:15:24.985Z,12.23
2023-03-19T09:17:52.280Z,12.07
2023-03-19T09:20:19.550Z,11.95
2023-03-19T09:22:46.984Z,12.05
2023-03-19T09:25:16.850Z,12.57
2023-03-19T09:27:44.140Z,12.52
2023-03-19T09:30:11.993Z,12.05
2023-03-19T09:32:39.274Z,12.15
2023-03-19T09:35:07.467Z,12.27
2023-03-19T09:37:34.878Z,12.13
2023-03-19T09:40:02.284Z,10.90
2023-03-19T09:42:41.460Z,11.23
2023-03-19T09:45:18.023Z,11.80
2023-03-19T09:47:49.897Z,11.40
2023-03-19T09:50:20.366Z,11.63
2023-03-19T09:53:10.258Z,11.40
2023-03-19T09:55:45.618Z,10.98
2023-03-19T09:58:35.032Z,11.23
2023-03-19T10:01:10.475Z,11.00
2023-03-19T10:04:14.784Z,11.25
2023-03-19T10:06:44.955Z,11.75
2023-03-19T10:09:49.854Z,11.13
2023-03-19T10:12:37.526Z,10.88
2023-03-19T10:15:24.982Z,11.45
2023-03-19T10:18:04.525Z,11.45
2023-03-19T10:20:57.105Z,10.40
2023-03-19T10:23:54.574Z,10.43
2023-03-19T10:26:29.868Z,11.05
2023-03-19T10:29:08.402Z,10.55
2023-03-19T10:31:36.139Z,10.65
2023-03-19T10:34:08.427Z,10.13
2023-03-19T10:36:39.664Z,10.38
2023-03-19T10:39:10.080Z,10.05
2023-03-19T10:41:49.407Z,10.68
2023-03-19T10:44:28.178Z,10.40
2023-03-19T10:47:09.070Z,10.57
2023-03-19T10:49:38.885Z,10.52
2023-03-19T10:52:17.112Z,10.15
2023-03-19T10:54:45.953Z,9.70
2023-03-19T10:57:31.876Z,10.43
2023-03-19T11:00:35.403Z,9.98
2023-03-19T11:03:23.281Z,10.52
2023-03-19T11:06:24.716Z,10.80
2023-03-19T11:08:59.449Z,10.13
2023-03-19T11:11:34.549Z,10.27
2023-03-19T11:14:16.007Z,10.63
2023-03-19T11:16:55.734Z,10.65
2023-03-19T11:19:29.593Z,11.23
2023-03-19T11:22:02.716Z,9.57
2023-03-19T11:24:33.243Z,11.02
2023-03-19T11:27:00.633Z,10.90
2023-03-19T11:29:31.385Z,10.05
2023-03-19T11:32:29.827Z,10.05
2023-03-19T11:35:03.295Z,10.10
2023-03-19T11:38:06.047Z,10.15
2023-03-19T11:41:18.714Z,9.38
2023-03-19T11:44:04.969Z,10.23
2023-03-19T11:46:44.682Z,9.48
2023-03-19T11:49:23.032Z,11.10
2023-03-19T11:52:02.776Z,9.88
2023-03-19T11:55:01.189Z,10.35
2023-03-19T11:57:55.313Z,10.10
2023-03-19T12:00:31.866Z,9.98
2023-03-19T12:03:29.496Z,10.30
2023-03-19T12:06:29.611Z,9.30
2023-03-19T12:09:03.192Z,9.40
2023-03-19T12:11:56.232Z,9.95
2023-03-19T12:14:41.656Z,8.98
2023-03-19T12:17:45.890Z,9.73
2023-03-19T12:20:32.498Z,9.23
2023-03-19T12:22:59.740Z,8.30
2023-03-19T12:26:04.527Z,9.40
2023-03-19T12:28:54.851Z,9.45
2023-03-19T12:31:31.127Z,8.90
2023-03-19T12:34:23.980Z,8.07
2023-03-19T12:36:55.418Z,8.73
2023-03-19T12:39:29.705Z,9.13
2023-03-19T12:42:00.097Z,9.68
2023-03-19T12:44:32.943Z,9.32
2023-03-19T12:47:14.603Z,8.95
2023-03-19T12:49:48.411Z,8.60
2023-03-19T12:52:23.818Z,9.55
2023-03-19T12:55:15.533Z,9.27
2023-03-19T12:57:50.788Z,9.93
2023-03-19T13:00:51.255Z,9.30
2023-03-19T13:03:39.781Z,9.85
2023-03-19T13:06:14.012Z,9.88
2023-03-19T13:08:50.387Z,10.60
2023-03-19T13:11:50.797Z,10.25
2023-03-19T13:14:22.039Z,10.88
2023-03-19T13:17:23.892Z,11.82
2023-03-19T13:22:30.934Z,10.82
2023-03-19T13:25:04.520Z,11.48
2023-03-19T13:27:34.986Z,11.57
2023-03-19T13:30:11.239Z,11.70
2023-03-19T13:32:39.145Z,11.27
2023-03-19T13:35:40.870Z,11.27
2023-03-19T13:38:17.482Z,11.80
2023-03-19T13:40:58.934Z,12.10
2023-03-19T13:43:31.731Z,12.43
2023-03-19T13:46:15.822Z,11.55
2023-03-19T13:48:46.008Z,12.55
2023-03-19T13:51:17.895Z,12.45
2023-03-19T13:54:08.177Z,17.83
2023-03-19T13:57:07.871Z,13.73
2023-03-19T13:59:36.337Z,11.88
2023-03-19T14:02:26.630Z,11.68
2023-03-19T14:04:58.566Z,11.25
2023-03-19T14:07:30.445Z,11.63
2023-03-19T14:09:57.723Z,11.27
2023-03-19T14:12:32.651Z,12.20
2023-03-19T14:15:18.021Z,11.05
2023-03-19T14:18:01.870Z,10.85
2023-03-19T14:20:40.553Z,10.55
2023-03-19T14:23:39.026Z,10.38
2023-03-19T14:26:23.277Z,10.90
2023-03-19T14:29:05.918Z,11.30
2023-03-19T14:31:38.980Z,11.10
2023-03-19T14:34:12.177Z,10.73
2023-03-19T14:36:55.785Z,10.63
2023-03-19T14:39:31.551Z,10.68
2023-03-19T14:42:10.186Z,11.60
2023-03-19T14:45:14.693Z,11.88
2023-03-19T14:47:50.723Z,10.70
2023-03-19T14:50:38.253Z,11.10
2023-03-19T14:53:30.386Z,10.77
2023-03-19T14:56:10.857Z,10.68
2023-03-19T14:58:38.162Z,11.15
2023-03-19T15:01:07.117Z,10.07
2023-03-19T15:03:39.276Z,11.05
2023-03-19T15:06:12.060Z,11.52
2023-03-19T15:08:42.768Z,11.35
2023-03-19T15:11:28.967Z,10.98
2023-03-19T15:14:17.768Z,10.85
2023-03-19T15:16:50.274Z,11.30
2023-03-19T15:19:24.796Z,10.98
2023-03-19T15:22:02.970Z,11.77
2023-03-19T15:24:30.458Z,10.65
2023-03-19T15:26:57.674Z,11.70
2023-03-19T15:29:37.857Z,11.60
2023-03-19T15:32:10.091Z,11.80
2023-03-19T15:34:38.045Z,11.82
2023-03-19T15:37:12.054Z,11.40
2023-03-19T15:39:49.202Z,11.18
2023-03-19T15:42:17.284Z,10.90
2023-03-19T15:44:48.841Z,10.38
2023-03-19T15:49:52.630Z,10.02
2023-03-19T15:52:23.926Z,10.70
2023-03-19T15:54:57.144Z,12.20
2023-03-19T15:57:25.529Z,13.75
2023-03-19T15:59:55.981Z,12.57
2023-03-19T16:02:31.975Z,12.60
2023-03-19T16:05:20.841Z,9.60
2023-03-19T16:07:58.604Z,8.68
2023-03-19T16:10:28.722Z,8.73
2023-03-19T16:12:56.367Z,8.50
2023-03-19T16:15:45.936Z,8.55
2023-03-19T16:18:16.400Z,8.07
2023-03-19T16:21:16.907Z,7.90
2023-03-19T16:23:49.951Z,8.65
2023-03-19T16:26:26.644Z,8.65
2023-03-19T16:29:03.317Z,8.18
2023-03-19T16:31:46.716Z,8.23
2023-03-19T16:35:01.169Z,8.48
2023-03-19T16:37:39.748Z,7.30
2023-03-19T16:40:12.940Z,8.63
2023-03-19T16:42:52.890Z,8.77
2023-03-19T16:45:22.170Z,9.10
2023-03-19T16:47:54.025Z,7.72
2023-03-19T16:50:29.715Z,8.40
2023-03-19T16:52:58.632Z,8.50
2023-03-19T16:55:27.123Z,8.30
2023-03-19T16:58:00.802Z,8.05
2023-03-19T17:00:31.821Z,7.68
2023-03-19T17:03:00.533Z,8.60
2023-03-19T17:05:29.632Z,9.52
2023-03-19T17:07:59.104Z,9.15
2023-03-19T17:10:30.156Z,9.52
2023-03-19T17:12:58.492Z,10.80
2023-03-19T17:15:42.332Z,10.70
2023-03-19T17:18:31.431Z,10.35
2023-03-19T17:21:01.781Z,9.88
2023-03-19T17:23:30.446Z,9.05
2023-03-19T17:26:00.383Z,8.48
2023-03-19T17:28:32.420Z,9.38
2023-03-19T17:31:02.429Z,8.98
2023-03-19T17:33:32.673Z,8.80
2023-03-19T17:35:59.987Z,8.70
2023-03-19T17:38:35.394Z,8.80
2023-03-19T17:41:09.572Z,9.02
2023-03-19T17:43:36.863Z,8.95
2023-03-19T17:46:04.176Z,9.30
2023-03-19T17:48:31.791Z,8.88
2023-03-19T17:51:02.049Z,8.45
2023-03-19T17:53:30.250Z,9.40
2023-03-19T17:55:57.618Z,8.85
2023-03-19T17:58:27.392Z,9.90
2023-03-19T18:00:54.717Z,9.68
2023-03-19T18:03:24.198Z,9.93
2023-03-19T18:05:51.901Z,9.82
2023-03-19T18:08:23.619Z,10.27
2023-03-19T18:10:54.329Z,9.07
2023-03-19T18:13:21.583Z,9.50
2023-03-19T18:15:53.401Z,9.43
2023-03-19T18:18:21.633Z,9.77
2023-03-19T18:20:49.926Z,9.90
2023-03-19T18:23:19.760Z,9.77
2023-03-19T18:25:47.336Z,10.05
2023-03-19T18:28:16.945Z,9.73
2023-03-19T18:30:45.957Z,10.52
2023-03-19T18:33:21.600Z,10.32
2023-03-19T18:35:53.161Z,10.15
2023-03-19T18:40:49.988Z,10.02
2023-03-19T18:43:17.379Z,9.50
2023-03-19T18:45:53.082Z,13.27
2023-03-19T18:48:25.082Z,11.48
2023-03-19T18:50:52.947Z,11.68
2023-03-19T18:53:23.285Z,12.35
2023-03-19T18:55:55.362Z,12.23
2023-03-19T18:58:28.932Z,12.35
2023-03-19T19:00:57.554Z,12.27
2023-03-19T19:03:29.562Z,13.57
2023-03-19T19:05:57.018Z,16.50
2023-03-19T19:08:26.657Z,17.90
2023-03-19T19:10:58.818Z,17.20
2023-03-19T19:13:30.291Z,17.58
2023-03-19T19:15:57.802Z,18.05
2023-03-19T19:18:31.528Z,16.55
2023-03-19T19:21:00.680Z,17.05
2023-03-19T19:23:30.480Z,17.08
2023-03-19T19:26:00.002Z,15.88
2023-03-19T19:28:41.543Z,16.95
2023-03-19T19:33:44.438Z,15.88
2023-03-19T19:36:11.726Z,15.98
2023-03-19T19:38:38.941Z,16.02
2023-03-19T19:41:10.613Z,15.05
2023-03-19T19:43:44.344Z,13.55
2023-03-19T19:46:14.280Z,14.30
2023-03-19T19:48:44.473Z,14.07
2023-03-19T19:51:23.231Z,13.32
2023-03-19T19:53:51.085Z,13.52
2023-03-19T19:56:21.491Z,13.35
2023-03-19T19:58:53.577Z,12.80
2023-03-19T20:01:23.949Z,12.07
2023-03-19T20:03:52.413Z,13.10
2023-03-19T20:06:20.038Z,18.02
2023-03-19T20:08:50.270Z,25.85
2023-03-19T20:11:23.443Z,23.05
2023-03-19T20:13:56.655Z,17.95
2023-03-19T20:16:26.788Z,16.48
2023-03-19T20:18:55.075Z,12.38
2023-03-19T20:21:24.864Z,12.15
2023-03-19T20:23:58.882Z,12.70
2023-03-19T20:26:26.297Z,11.85
2023-03-19T20:28:54.509Z,11.45
2023-03-19T20:31:27.853Z,12.02
2023-03-19T20:33:57.756Z,11.80
2023-03-19T20:36:25.233Z,12.60
2023-03-19T20:38:52.631Z,12.32
2023-03-19T20:41:23.581Z,12.50
2023-03-19T20:43:54.241Z,12.07
2023-03-19T20:46:23.363Z,11.17
2023-03-19T20:48:55.016Z,11.20
2023-03-19T20:53:52.871Z,11.32
2023-03-19T20:56:24.614Z,10.85
2023-03-19T21:01:21.689Z,11.57
2023-03-19T21:03:53.562Z,11.63
2023-03-19T21:06:23.397Z,11.90
2023-03-19T21:08:54.607Z,12.07
2023-03-19T21:11:24.259Z,11.00
2023-03-19T21:13:53.131Z,12.05
2023-03-19T21:16:25.232Z,12.07
2023-03-19T21:18:53.933Z,10.95
2023-03-19T21:21:31.060Z,11.65
2023-03-19T21:24:17.105Z,12.10
2023-03-19T21:26:46.246Z,12.50
2023-03-19T21:29:27.208Z,12.10
2023-03-19T21:31:57.908Z,11.10
2023-03-19T21:34:25.277Z,11.95
2023-03-19T21:36:55.261Z,11.75
2023-03-19T21:39:25.336Z,11.10
2023-03-19T21:41:52.745Z,10.98
2023-03-19T21:44:22.557Z,11.55
2023-03-19T21:46:50.265Z,10.65
2023-03-19T21:49:17.586Z,11.05
2023-03-19T21:51:44.868Z,11.45
2023-03-19T21:54:12.172Z,11.50
2023-03-19T21:56:44.674Z,11.25
2023-03-19T21:59:34.658Z,11.45
2023-03-19T22:02:04.260Z,12.55
2023-03-19T22:04:34.197Z,11.05
2023-03-19T22:07:04.043Z,12.25
2023-03-19T22:09:31.266Z,13.68
2023-03-19T22:11:58.515Z,12.68
2023-03-19T22:14:27.275Z,12.02
2023-03-19T22:16:57.538Z,11.98
2023-03-19T22:19:28.235Z,12.80
2023-03-19T22:21:55.518Z,11.70
2023-03-19T22:24:22.763Z,10.85
2023-03-19T22:26:57.239Z,10.98
2023-03-19T22:29:25.630Z,11.50
2023-03-19T22:31:56.349Z,11.27
2023-03-19T22:34:30.241Z,11.45
2023-03-19T22:36:57.551Z,10.70
2023-03-19T22:39:27.205Z,11.30
2023-03-19T22:41:56.998Z,11.73
2023-03-19T22:44:28.625Z,10.73
2023-03-19T22:49:24.822Z,11.27
2023-03-19T22:51:52.260Z,10.20
2023-03-19T22:54:19.621Z,11.40
2023-03-19T22:56:49.047Z,9.75
2023-03-19T22:59:16.370Z,10.70
2023-03-19T23:01:47.459Z,9.75
2023-03-19T23:04:21.597Z,9.93
2023-03-19T23:06:52.645Z,10.85
2023-03-19T23:09:24.138Z,11.23
2023-03-19T23:11:52.664Z,10.95
2023-03-19T23:14:35.210Z,10.57
2023-03-19T23:17:15.014Z,10.98
2023-03-19T23:19:42.263Z,10.23
2023-03-19T23:22:16.072Z,11.15
2023-03-19T23:24:44.695Z,11.23
2023-03-19T23:27:25.247Z,10.93
2023-03-19T23:29:53.048Z,11.20
2023-03-19T23:32:20.715Z,10.52
2023-03-19T23:35:00.289Z,10.48
2023-03-19T23:37:28.996Z,10.82
2023-03-19T23:39:57.786Z,10.88
2023-03-19T23:42:34.470Z,10.52
2023-03-19T23:45:03.915Z,10.77
2023-03-19T23:47:31.356Z,10.45
2023-03-19T23:50:03.710Z,11.00
2023-03-19T23:52:33.465Z,10.75
2023-03-19T23:55:01.537Z,9.88
2023-03-19T23:57:28.827Z,11.20
2023-03-19T23:59:58.553Z,10.40
